sensor_id;sensor_type;location;lat;lon;timestamp;temperature;humidity
1015;DHT22;8170;48.118;11.628;2023-04-16T00:00:54;5.30;99.90
1015;DHT22;8170;48.118;11.628;2023-04-16T00:01:57;5.30;99.90
1015;DHT22;8170;48.118;11.628;2023-04-16T00:02:59;5.30;99.90
1015;DHT22;8170;48.118;11.628;2023-04-16T00:04:03;5.30;99.90
1015;DHT22;8170;48.118;11.628;2023-04-16T00:05:06;5.30;99.90
1015;DHT22;8170;48.118;11.628;2023-04-16T00:06:09;5.30;99.90
1015;DHT22;8170;48.118;11.628;2023-04-16T00:07:12;5.30;99.90
1015;DHT22;8170;48.118;11.628;2023-04-16T00:08:15;5.30;99.90
1015;DHT22;8170;48.118;11.628;2023-04-16T00:09:17;5.20;99.90
1015;DHT22;8170;48.118;11.628;2023-04-16T00:10:20;5.20;99.90
1015;DHT22;8170;48.118;11.628;2023-04-16T00:11:22;5.20;99.90
1015;DHT22;8170;48.118;11.628;2023-04-16T00:12:25;5.30;99.90
1015;DHT22;8170;48.118;11.628;2023-04-16T00:13:27;5.20;99.90
1015;DHT22;8170;48.118;11.628;2023-04-16T00:14:30;5.20;99.90
1015;DHT22;8170;48.118;11.628;2023-04-16T00:15:33;5.20;99.90
1015;DHT22;8170;48.118;11.628;2023-04-16T00:16:37;5.20;99.90
1015;DHT22;8170;48.118;11.628;2023-04-16T00:17:40;5.20;99.90
1015;DHT22;8170;48.118;11.628;2023-04-16T00:18:43;5.20;99.90
1015;DHT22;8170;48.118;11.628;2023-04-16T00:19:45;5.20;99.90
1015;DHT22;8170;48.118;11.628;2023-04-16T00:20:48;5.30;99.90
1015;DHT22;8170;48.118;11.628;2023-04-16T00:21:50;5.20;99.90
1015;DHT22;8170;48.118;11.628;2023-04-16T00:22:53;5.30;99.90
1015;DHT22;8170;48.118;11.628;2023-04-16T00:23:55;5.30;99.90
1015;DHT22;8170;48.118;11.628;2023-04-16T00:24:58;5.30;99.90
1015;DHT22;8170;48.118;11.628;2023-04-16T00:26:00;5.30;99.90
1015;DHT22;8170;48.118;11.628;2023-04-16T00:27:03;5.30;99.90
1015;DHT22;8170;48.118;11.628;2023-04-16T00:28:05;5.30;99.90
1015;DHT22;8170;48.118;11.628;2023-04-16T00:29:11;5.30;99.90
1015;DHT22;8170;48.118;11.628;2023-04-16T00:30:13;5.30;99.90
1015;DHT22;8170;48.118;11.628;2023-04-16T00:31:16;5.30;99.90
1015;DHT22;8170;48.118;11.628;2023-04-16T00:32:20;5.40;99.90
1015;DHT22;8170;48.118;11.628;2023-04-16T00:33:23;5.40;99.90
1015;DHT22;8170;48.118;11.628;2023-04-16T00:34:25;5.30;99.90
1015;DHT22;8170;48.118;11.628;2023-04-16T00:35:28;5.30;99.90
1015;DHT22;8170;48.118;11.628;2023-04-16T00:36:30;5.30;99.90
1015;DHT22;8170;48.118;11.628;2023-04-16T00:37:33;5.30;99.90
1015;DHT22;8170;48.118;11.628;2023-04-16T00:38:35;5.30;99.90
1015;DHT22;8170;48.118;11.628;2023-04-16T00:39:39;5.30;99.90
1015;DHT22;8170;48.118;11.628;2023-04-16T00:40:41;5.40;99.90
1015;DHT22;8170;48.118;11.628;2023-04-16T00:41:44;5.30;99.90
1015;DHT22;8170;48.118;11.628;2023-04-16T00:42:46;5.30;99.90
1015;DHT22;8170;48.118;11.628;2023-04-16T00:43:49;5.30;99.90
1015;DHT22;8170;48.118;11.628;2023-04-16T00:44:52;5.30;99.90
1015;DHT22;8170;48.118;11.628;2023-04-16T00:45:56;5.30;99.90
1015;DHT22;8170;48.118;11.628;2023-04-16T00:46:58;5.20;99.90
1015;DHT22;8170;48.118;11.628;2023-04-16T00:48:03;5.20;99.90
1015;DHT22;8170;48.118;11.628;2023-04-16T00:49:06;5.30;99.90
1015;DHT22;8170;48.118;11.628;2023-04-16T00:50:10;5.30;99.90
1015;DHT22;8170;48.118;11.628;2023-04-16T00:51:12;5.20;99.90
1015;DHT22;8170;48.118;11.628;2023-04-16T00:52:17;5.30;99.90
1015;DHT22;8170;48.118;11.628;2023-04-16T00:53:19;5.30;99.90
1015;DHT22;8170;48.118;11.628;2023-04-16T00:54:23;5.30;99.90
1015;DHT22;8170;48.118;11.628;2023-04-16T00:55:26;5.30;99.90
1015;DHT22;8170;48.118;11.628;2023-04-16T00:56:29;5.30;99.90
1015;DHT22;8170;48.118;11.628;2023-04-16T00:57:31;5.30;99.90
1015;DHT22;8170;48.118;11.628;2023-04-16T00:58:34;5.30;99.90
1015;DHT22;8170;48.118;11.628;2023-04-16T00:59:36;5.30;99.90
1015;DHT22;8170;48.118;11.628;2023-04-16T01:00:40;5.30;99.90
1015;DHT22;8170;48.118;11.628;2023-04-16T01:01:42;5.30;99.90
1015;DHT22;8170;48.118;11.628;2023-04-16T01:02:45;5.30;99.90
1015;DHT22;8170;48.118;11.628;2023-04-16T01:03:49;5.30;99.90
1015;DHT22;8170;48.118;11.628;2023-04-16T01:04:52;5.30;99.90
1015;DHT22;8170;48.118;11.628;2023-04-16T01:05:56;5.30;99.90
1015;DHT22;8170;48.118;11.628;2023-04-16T01:06:59;5.30;99.90
1015;DHT22;8170;48.118;11.628;2023-04-16T01:08:01;5.30;99.90
1015;DHT22;8170;48.118;11.628;2023-04-16T01:09:05;5.30;99.90
1015;DHT22;8170;48.118;11.628;2023-04-16T01:10:08;5.30;99.90
1015;DHT22;8170;48.118;11.628;2023-04-16T01:11:11;5.30;99.90
1015;DHT22;8170;48.118;11.628;2023-04-16T01:12:13;5.30;99.90
1015;DHT22;8170;48.118;11.628;2023-04-16T01:13:16;5.20;99.90
1015;DHT22;8170;48.118;11.628;2023-04-16T01:14:18;5.20;99.90
1015;DHT22;8170;48.118;11.628;2023-04-16T01:15:21;5.20;99.90
1015;DHT22;8170;48.118;11.628;2023-04-16T01:16:23;5.20;99.90
1015;DHT22;8170;48.118;11.628;2023-04-16T01:17:27;5.20;99.90
1015;DHT22;8170;48.118;11.628;2023-04-16T01:18:29;5.30;99.90
1015;DHT22;8170;48.118;11.628;2023-04-16T01:19:34;5.30;99.90
1015;DHT22;8170;48.118;11.628;2023-04-16T01:20:41;5.30;99.90
1015;DHT22;8170;48.118;11.628;2023-04-16T01:21:44;5.30;99.90
1015;DHT22;8170;48.118;11.628;2023-04-16T01:22:48;5.30;99.90
1015;DHT22;8170;48.118;11.628;2023-04-16T01:23:50;5.30;99.90
1015;DHT22;8170;48.118;11.628;2023-04-16T01:24:53;5.30;99.90
1015;DHT22;8170;48.118;11.628;2023-04-16T01:25:55;5.30;99.90
1015;DHT22;8170;48.118;11.628;2023-04-16T01:26:59;5.30;99.90
1015;DHT22;8170;48.118;11.628;2023-04-16T01:28:01;5.20;99.90
1015;DHT22;8170;48.118;11.628;2023-04-16T01:29:05;5.20;99.90
1015;DHT22;8170;48.118;11.628;2023-04-16T01:30:08;5.20;99.90
1015;DHT22;8170;48.118;11.628;2023-04-16T01:31:21;5.10;99.90
1015;DHT22;8170;48.118;11.628;2023-04-16T01:32:39;5.20;99.90
1015;DHT22;8170;48.118;11.628;2023-04-16T01:33:48;5.20;99.90
1015;DHT22;8170;48.118;11.628;2023-04-16T01:34:51;5.30;99.90
1015;DHT22;8170;48.118;11.628;2023-04-16T01:35:54;5.30;99.90
1015;DHT22;8170;48.118;11.628;2023-04-16T01:36:57;5.30;99.90
1015;DHT22;8170;48.118;11.628;2023-04-16T01:37:59;5.20;99.90
1015;DHT22;8170;48.118;11.628;2023-04-16T01:39:03;5.20;99.90
1015;DHT22;8170;48.118;11.628;2023-04-16T01:40:07;5.20;99.90
1015;DHT22;8170;48.118;11.628;2023-04-16T01:41:09;5.20;99.90
1015;DHT22;8170;48.118;11.628;2023-04-16T01:42:12;5.20;99.90
1015;DHT22;8170;48.118;11.628;2023-04-16T01:43:14;5.30;99.90
1015;DHT22;8170;48.118;11.628;2023-04-16T01:44:18;5.30;99.90
1015;DHT22;8170;48.118;11.628;2023-04-16T01:45:20;5.30;99.90
1015;DHT22;8170;48.118;11.628;2023-04-16T01:46:26;5.30;99.90
1015;DHT22;8170;48.118;11.628;2023-04-16T01:47:29;5.30;99.90
1015;DHT22;8170;48.118;11.628;2023-04-16T01:48:32;5.30;99.90
1015;DHT22;8170;48.118;11.628;2023-04-16T01:49:34;5.20;99.90
1015;DHT22;8170;48.118;11.628;2023-04-16T01:50:37;5.20;99.90
1015;DHT22;8170;48.118;11.628;2023-04-16T01:51:41;5.20;99.90
1015;DHT22;8170;48.118;11.628;2023-04-16T01:52:44;5.20;99.90
1015;DHT22;8170;48.118;11.628;2023-04-16T01:53:46;5.30;99.90
1015;DHT22;8170;48.118;11.628;2023-04-16T01:54:49;5.30;99.90
1015;DHT22;8170;48.118;11.628;2023-04-16T01:55:51;5.40;99.90
1015;DHT22;8170;48.118;11.628;2023-04-16T01:56:54;5.40;99.90
1015;DHT22;8170;48.118;11.628;2023-04-16T01:57:56;5.40;99.90
1015;DHT22;8170;48.118;11.628;2023-04-16T01:59:05;5.30;99.90
1015;DHT22;8170;48.118;11.628;2023-04-16T02:00:13;5.30;99.90
1015;DHT22;8170;48.118;11.628;2023-04-16T02:01:21;5.30;99.90
1015;DHT22;8170;48.118;11.628;2023-04-16T02:02:24;5.30;99.90
1015;DHT22;8170;48.118;11.628;2023-04-16T02:03:30;5.30;99.90
1015;DHT22;8170;48.118;11.628;2023-04-16T02:04:33;5.30;99.90
1015;DHT22;8170;48.118;11.628;2023-04-16T02:05:36;5.30;99.90
1015;DHT22;8170;48.118;11.628;2023-04-16T02:06:40;5.30;99.90
1015;DHT22;8170;48.118;11.628;2023-04-16T02:07:42;5.30;99.90
1015;DHT22;8170;48.118;11.628;2023-04-16T02:08:45;5.40;99.90
1015;DHT22;8170;48.118;11.628;2023-04-16T02:09:49;5.40;99.90
1015;DHT22;8170;48.118;11.628;2023-04-16T02:10:52;5.30;99.90
1015;DHT22;8170;48.118;11.628;2023-04-16T02:11:54;5.30;99.90
1015;DHT22;8170;48.118;11.628;2023-04-16T02:12:57;5.30;99.90
1015;DHT22;8170;48.118;11.628;2023-04-16T02:13:59;5.30;99.90
1015;DHT22;8170;48.118;11.628;2023-04-16T02:15:03;5.40;99.90
1015;DHT22;8170;48.118;11.628;2023-04-16T02:16:06;5.30;99.90
1015;DHT22;8170;48.118;11.628;2023-04-16T02:17:18;5.30;99.90
1015;DHT22;8170;48.118;11.628;2023-04-16T02:18:23;5.30;99.90
1015;DHT22;8170;48.118;11.628;2023-04-16T02:19:26;5.30;99.90
1015;DHT22;8170;48.118;11.628;2023-04-16T02:20:28;5.30;99.90
1015;DHT22;8170;48.118;11.628;2023-04-16T02:21:34;5.30;99.90
1015;DHT22;8170;48.118;11.628;2023-04-16T02:22:37;5.30;99.90
1015;DHT22;8170;48.118;11.628;2023-04-16T02:23:41;5.30;99.90
1015;DHT22;8170;48.118;11.628;2023-04-16T02:24:43;5.30;99.90
1015;DHT22;8170;48.118;11.628;2023-04-16T02:25:46;5.30;99.90
1015;DHT22;8170;48.118;11.628;2023-04-16T02:26:49;5.30;99.90
1015;DHT22;8170;48.118;11.628;2023-04-16T02:27:52;5.30;99.90
1015;DHT22;8170;48.118;11.628;2023-04-16T02:29:05;5.20;99.90
1015;DHT22;8170;48.118;11.628;2023-04-16T02:30:13;5.30;99.90
1015;DHT22;8170;48.118;11.628;2023-04-16T02:31:16;5.20;99.90
1015;DHT22;8170;48.118;11.628;2023-04-16T02:32:21;5.20;99.90
1015;DHT22;8170;48.118;11.628;2023-04-16T02:33:24;5.30;99.90
1015;DHT22;8170;48.118;11.628;2023-04-16T02:34:34;5.30;99.90
1015;DHT22;8170;48.118;11.628;2023-04-16T02:35:37;5.30;99.90
1015;DHT22;8170;48.118;11.628;2023-04-16T02:36:41;5.30;99.90
1015;DHT22;8170;48.118;11.628;2023-04-16T02:37:45;5.30;99.90
1015;DHT22;8170;48.118;11.628;2023-04-16T02:38:48;5.40;99.90
1015;DHT22;8170;48.118;11.628;2023-04-16T02:39:50;5.40;99.90
1015;DHT22;8170;48.118;11.628;2023-04-16T02:40:54;5.30;99.90
1015;DHT22;8170;48.118;11.628;2023-04-16T02:41:56;5.20;99.90
1015;DHT22;8170;48.118;11.628;2023-04-16T02:43:00;5.20;99.90
1015;DHT22;8170;48.118;11.628;2023-04-16T02:44:02;5.20;99.90
1015;DHT22;8170;48.118;11.628;2023-04-16T02:45:07;5.20;99.90
1015;DHT22;8170;48.118;11.628;2023-04-16T02:46:09;5.20;99.90
1015;DHT22;8170;48.118;11.628;2023-04-16T02:47:12;5.20;99.90
1015;DHT22;8170;48.118;11.628;2023-04-16T02:48:15;5.20;99.90
1015;DHT22;8170;48.118;11.628;2023-04-16T02:49:18;5.30;99.90
1015;DHT22;8170;48.118;11.628;2023-04-16T02:50:22;5.30;99.90
1015;DHT22;8170;48.118;11.628;2023-04-16T02:51:25;5.30;99.90
1015;DHT22;8170;48.118;11.628;2023-04-16T02:52:28;5.30;99.90
1015;DHT22;8170;48.118;11.628;2023-04-16T02:53:34;5.30;99.90
1015;DHT22;8170;48.118;11.628;2023-04-16T02:54:36;5.30;99.90
1015;DHT22;8170;48.118;11.628;2023-04-16T02:55:39;5.40;99.90
1015;DHT22;8170;48.118;11.628;2023-04-16T02:56:42;5.40;99.90
1015;DHT22;8170;48.118;11.628;2023-04-16T02:57:47;5.40;99.90
1015;DHT22;8170;48.118;11.628;2023-04-16T02:58:49;5.30;99.90
1015;DHT22;8170;48.118;11.628;2023-04-16T02:59:53;5.30;99.90
1015;DHT22;8170;48.118;11.628;2023-04-16T03:00:56;5.30;99.90
1015;DHT22;8170;48.118;11.628;2023-04-16T03:01:59;5.30;99.90
1015;DHT22;8170;48.118;11.628;2023-04-16T03:03:02;5.30;99.90
1015;DHT22;8170;48.118;11.628;2023-04-16T03:04:05;5.30;99.90
1015;DHT22;8170;48.118;11.628;2023-04-16T03:05:08;5.40;99.90
1015;DHT22;8170;48.118;11.628;2023-04-16T03:06:11;5.40;99.90
1015;DHT22;8170;48.118;11.628;2023-04-16T03:07:13;5.40;99.90
1015;DHT22;8170;48.118;11.628;2023-04-16T03:08:16;5.30;99.90
1015;DHT22;8170;48.118;11.628;2023-04-16T03:09:20;5.30;99.90
1015;DHT22;8170;48.118;11.628;2023-04-16T03:10:23;5.30;99.90
1015;DHT22;8170;48.118;11.628;2023-04-16T03:11:25;5.30;99.90
1015;DHT22;8170;48.118;11.628;2023-04-16T03:12:28;5.20;99.90
1015;DHT22;8170;48.118;11.628;2023-04-16T03:13:30;5.30;99.90
1015;DHT22;8170;48.118;11.628;2023-04-16T03:14:33;5.30;99.90
1015;DHT22;8170;48.118;11.628;2023-04-16T03:15:35;5.30;99.90
1015;DHT22;8170;48.118;11.628;2023-04-16T03:16:38;5.30;99.90
1015;DHT22;8170;48.118;11.628;2023-04-16T03:17:40;5.40;99.90
1015;DHT22;8170;48.118;11.628;2023-04-16T03:18:43;5.40;99.90
1015;DHT22;8170;48.118;11.628;2023-04-16T03:19:45;5.40;99.90
1015;DHT22;8170;48.118;11.628;2023-04-16T03:20:50;5.40;99.90
1015;DHT22;8170;48.118;11.628;2023-04-16T03:21:53;5.40;99.90
1015;DHT22;8170;48.118;11.628;2023-04-16T03:22:56;5.30;99.90
1015;DHT22;8170;48.118;11.628;2023-04-16T03:23:58;5.30;99.90
1015;DHT22;8170;48.118;11.628;2023-04-16T03:25:02;5.40;99.90
1015;DHT22;8170;48.118;11.628;2023-04-16T03:26:05;5.40;99.90
1015;DHT22;8170;48.118;11.628;2023-04-16T03:27:08;5.40;99.90
1015;DHT22;8170;48.118;11.628;2023-04-16T03:28:10;5.40;99.90
1015;DHT22;8170;48.118;11.628;2023-04-16T03:29:13;5.50;99.90
1015;DHT22;8170;48.118;11.628;2023-04-16T03:30:16;5.40;99.90
1015;DHT22;8170;48.118;11.628;2023-04-16T03:31:19;5.40;99.90
1015;DHT22;8170;48.118;11.628;2023-04-16T03:32:21;5.30;99.90
1015;DHT22;8170;48.118;11.628;2023-04-16T03:33:24;5.30;99.90
1015;DHT22;8170;48.118;11.628;2023-04-16T03:34:27;5.40;99.90
1015;DHT22;8170;48.118;11.628;2023-04-16T03:35:31;5.40;99.90
1015;DHT22;8170;48.118;11.628;2023-04-16T03:36:34;5.40;99.90
1015;DHT22;8170;48.118;11.628;2023-04-16T03:37:37;5.40;99.90
1015;DHT22;8170;48.118;11.628;2023-04-16T03:38:39;5.40;99.90
1015;DHT22;8170;48.118;11.628;2023-04-16T03:39:42;5.40;99.90
1015;DHT22;8170;48.118;11.628;2023-04-16T03:40:47;5.40;99.90
1015;DHT22;8170;48.118;11.628;2023-04-16T03:41:49;5.40;99.90
1015;DHT22;8170;48.118;11.628;2023-04-16T03:42:52;5.40;99.90
1015;DHT22;8170;48.118;11.628;2023-04-16T03:43:54;5.40;99.90
1015;DHT22;8170;48.118;11.628;2023-04-16T03:44:57;5.40;99.90
1015;DHT22;8170;48.118;11.628;2023-04-16T03:46:00;5.40;99.90
1015;DHT22;8170;48.118;11.628;2023-04-16T03:47:03;5.40;99.90
1015;DHT22;8170;48.118;11.628;2023-04-16T03:48:06;5.40;99.90
1015;DHT22;8170;48.118;11.628;2023-04-16T03:49:09;5.40;99.90
1015;DHT22;8170;48.118;11.628;2023-04-16T03:50:12;5.40;99.90
1015;DHT22;8170;48.118;11.628;2023-04-16T03:51:15;5.40;99.90
1015;DHT22;8170;48.118;11.628;2023-04-16T03:52:17;5.40;99.90
1015;DHT22;8170;48.118;11.628;2023-04-16T03:53:21;5.40;99.90
1015;DHT22;8170;48.118;11.628;2023-04-16T03:54:23;5.40;99.90
1015;DHT22;8170;48.118;11.628;2023-04-16T03:55:38;5.40;99.90
1015;DHT22;8170;48.118;11.628;2023-04-16T03:56:43;5.40;99.90
1015;DHT22;8170;48.118;11.628;2023-04-16T03:57:46;5.50;99.90
1015;DHT22;8170;48.118;11.628;2023-04-16T03:58:49;5.50;99.90
1015;DHT22;8170;48.118;11.628;2023-04-16T03:59:53;5.50;99.90
1015;DHT22;8170;48.118;11.628;2023-04-16T04:00:55;5.50;99.90
1015;DHT22;8170;48.118;11.628;2023-04-16T04:01:59;5.50;99.90
1015;DHT22;8170;48.118;11.628;2023-04-16T04:03:01;5.50;99.90
1015;DHT22;8170;48.118;11.628;2023-04-16T04:04:05;5.50;99.90
1015;DHT22;8170;48.118;11.628;2023-04-16T04:05:08;5.50;99.90
1015;DHT22;8170;48.118;11.628;2023-04-16T04:06:11;5.50;99.90
1015;DHT22;8170;48.118;11.628;2023-04-16T04:07:15;5.50;99.90
1015;DHT22;8170;48.118;11.628;2023-04-16T04:08:18;5.40;99.90
1015;DHT22;8170;48.118;11.628;2023-04-16T04:09:20;5.40;99.90
1015;DHT22;8170;48.118;11.628;2023-04-16T04:10:23;5.40;99.90
1015;DHT22;8170;48.118;11.628;2023-04-16T04:11:26;5.40;99.90
1015;DHT22;8170;48.118;11.628;2023-04-16T04:12:32;5.40;99.90
1015;DHT22;8170;48.118;11.628;2023-04-16T04:13:34;5.40;99.90
1015;DHT22;8170;48.118;11.628;2023-04-16T04:14:37;5.40;99.90
1015;DHT22;8170;48.118;11.628;2023-04-16T04:15:41;5.40;99.90
1015;DHT22;8170;48.118;11.628;2023-04-16T04:16:44;5.40;99.90
1015;DHT22;8170;48.118;11.628;2023-04-16T04:17:46;5.40;99.90
1015;DHT22;8170;48.118;11.628;2023-04-16T04:18:49;5.40;99.90
1015;DHT22;8170;48.118;11.628;2023-04-16T04:19:52;5.40;99.90
1015;DHT22;8170;48.118;11.628;2023-04-16T04:21:05;5.30;99.90
1015;DHT22;8170;48.118;11.628;2023-04-16T04:22:08;5.30;99.90
1015;DHT22;8170;48.118;11.628;2023-04-16T04:23:12;5.30;99.90
1015;DHT22;8170;48.118;11.628;2023-04-16T04:24:15;5.40;99.90
1015;DHT22;8170;48.118;11.628;2023-04-16T04:25:17;5.40;99.90
1015;DHT22;8170;48.118;11.628;2023-04-16T04:26:20;5.30;99.90
1015;DHT22;8170;48.118;11.628;2023-04-16T04:27:22;5.30;99.90
1015;DHT22;8170;48.118;11.628;2023-04-16T04:28:27;5.40;99.90
1015;DHT22;8170;48.118;11.628;2023-04-16T04:29:29;5.30;99.90
1015;DHT22;8170;48.118;11.628;2023-04-16T04:30:32;5.30;99.90
1015;DHT22;8170;48.118;11.628;2023-04-16T04:31:36;5.40;99.90
1015;DHT22;8170;48.118;11.628;2023-04-16T04:32:39;5.40;99.90
1015;DHT22;8170;48.118;11.628;2023-04-16T04:33:43;5.40;99.90
1015;DHT22;8170;48.118;11.628;2023-04-16T04:34:46;5.40;99.90
1015;DHT22;8170;48.118;11.628;2023-04-16T04:35:49;5.40;99.90
1015;DHT22;8170;48.118;11.628;2023-04-16T04:36:53;5.50;99.90
1015;DHT22;8170;48.118;11.628;2023-04-16T04:37:56;5.40;99.90
1015;DHT22;8170;48.118;11.628;2023-04-16T04:38:59;5.50;99.90
1015;DHT22;8170;48.118;11.628;2023-04-16T04:40:01;5.40;99.90
1015;DHT22;8170;48.118;11.628;2023-04-16T04:41:04;5.40;99.90
1015;DHT22;8170;48.118;11.628;2023-04-16T04:42:10;5.40;99.90
1015;DHT22;8170;48.118;11.628;2023-04-16T04:43:12;5.40;99.90
1015;DHT22;8170;48.118;11.628;2023-04-16T04:44:17;5.40;99.90
1015;DHT22;8170;48.118;11.628;2023-04-16T04:45:19;5.40;99.90
1015;DHT22;8170;48.118;11.628;2023-04-16T04:46:27;5.40;99.90
1015;DHT22;8170;48.118;11.628;2023-04-16T04:47:29;5.40;99.90
1015;DHT22;8170;48.118;11.628;2023-04-16T04:48:32;5.40;99.90
1015;DHT22;8170;48.118;11.628;2023-04-16T04:49:34;5.50;99.90
1015;DHT22;8170;48.118;11.628;2023-04-16T04:50:37;5.40;99.90
1015;DHT22;8170;48.118;11.628;2023-04-16T04:51:42;5.40;99.90
1015;DHT22;8170;48.118;11.628;2023-04-16T04:52:45;5.40;99.90
1015;DHT22;8170;48.118;11.628;2023-04-16T04:53:47;5.40;99.90
1015;DHT22;8170;48.118;11.628;2023-04-16T04:54:51;5.40;99.90
1015;DHT22;8170;48.118;11.628;2023-04-16T04:55:53;5.40;99.90
1015;DHT22;8170;48.118;11.628;2023-04-16T04:57:02;5.40;99.90
1015;DHT22;8170;48.118;11.628;2023-04-16T04:58:05;5.40;99.90
1015;DHT22;8170;48.118;11.628;2023-04-16T04:59:10;5.40;99.90
1015;DHT22;8170;48.118;11.628;2023-04-16T05:00:15;5.40;99.90
1015;DHT22;8170;48.118;11.628;2023-04-16T05:01:27;5.40;99.90
1015;DHT22;8170;48.118;11.628;2023-04-16T05:02:31;5.40;99.90
1015;DHT22;8170;48.118;11.628;2023-04-16T05:03:33;5.40;99.90
1015;DHT22;8170;48.118;11.628;2023-04-16T05:04:36;5.40;99.90
1015;DHT22;8170;48.118;11.628;2023-04-16T05:05:38;5.40;99.90
1015;DHT22;8170;48.118;11.628;2023-04-16T05:06:42;5.40;99.90
1015;DHT22;8170;48.118;11.628;2023-04-16T05:07:44;5.40;99.90
1015;DHT22;8170;48.118;11.628;2023-04-16T05:08:47;5.50;99.90
1015;DHT22;8170;48.118;11.628;2023-04-16T05:09:49;5.50;99.90
1015;DHT22;8170;48.118;11.628;2023-04-16T05:10:52;5.60;99.90
1015;DHT22;8170;48.118;11.628;2023-04-16T05:11:54;5.60;99.90
1015;DHT22;8170;48.118;11.628;2023-04-16T05:12:58;5.60;99.90
1015;DHT22;8170;48.118;11.628;2023-04-16T05:14:01;5.50;99.90
1015;DHT22;8170;48.118;11.628;2023-04-16T05:15:04;5.50;99.90
1015;DHT22;8170;48.118;11.628;2023-04-16T05:16:08;5.50;99.90
1015;DHT22;8170;48.118;11.628;2023-04-16T05:17:11;5.50;99.90
1015;DHT22;8170;48.118;11.628;2023-04-16T05:18:13;5.50;99.90
1015;DHT22;8170;48.118;11.628;2023-04-16T05:19:16;5.50;99.90
1015;DHT22;8170;48.118;11.628;2023-04-16T05:20:18;5.40;99.90
1015;DHT22;8170;48.118;11.628;2023-04-16T05:21:21;5.40;99.90
1015;DHT22;8170;48.118;11.628;2023-04-16T05:22:24;5.40;99.90
1015;DHT22;8170;48.118;11.628;2023-04-16T05:23:27;5.40;99.90
1015;DHT22;8170;48.118;11.628;2023-04-16T05:24:29;5.50;99.90
1015;DHT22;8170;48.118;11.628;2023-04-16T05:25:32;5.50;99.90
1015;DHT22;8170;48.118;11.628;2023-04-16T05:26:34;5.50;99.90
1015;DHT22;8170;48.118;11.628;2023-04-16T05:27:37;5.60;99.90
1015;DHT22;8170;48.118;11.628;2023-04-16T05:28:39;5.60;99.90
1015;DHT22;8170;48.118;11.628;2023-04-16T05:29:42;5.60;99.90
1015;DHT22;8170;48.118;11.628;2023-04-16T05:30:44;5.60;99.90
1015;DHT22;8170;48.118;11.628;2023-04-16T05:31:49;5.60;99.90
1015;DHT22;8170;48.118;11.628;2023-04-16T05:32:51;5.60;99.90
1015;DHT22;8170;48.118;11.628;2023-04-16T05:33:54;5.60;99.90
1015;DHT22;8170;48.118;11.628;2023-04-16T05:34:56;5.60;99.90
1015;DHT22;8170;48.118;11.628;2023-04-16T05:35:59;5.60;99.90
1015;DHT22;8170;48.118;11.628;2023-04-16T05:37:01;5.60;99.90
1015;DHT22;8170;48.118;11.628;2023-04-16T05:38:04;5.60;99.90
1015;DHT22;8170;48.118;11.628;2023-04-16T05:39:06;5.70;99.90
1015;DHT22;8170;48.118;11.628;2023-04-16T05:40:12;5.70;99.90
1015;DHT22;8170;48.118;11.628;2023-04-16T05:41:14;5.60;99.90
1015;DHT22;8170;48.118;11.628;2023-04-16T05:42:17;5.70;99.90
1015;DHT22;8170;48.118;11.628;2023-04-16T05:43:19;5.70;99.90
1015;DHT22;8170;48.118;11.628;2023-04-16T05:44:22;5.70;99.90
1015;DHT22;8170;48.118;11.628;2023-04-16T05:45:24;5.80;99.90
1015;DHT22;8170;48.118;11.628;2023-04-16T05:46:29;5.80;99.90
1015;DHT22;8170;48.118;11.628;2023-04-16T05:47:32;5.80;99.90
1015;DHT22;8170;48.118;11.628;2023-04-16T05:48:35;5.90;99.90
1015;DHT22;8170;48.118;11.628;2023-04-16T05:49:37;5.90;99.90
1015;DHT22;8170;48.118;11.628;2023-04-16T05:50:40;5.80;99.90
1015;DHT22;8170;48.118;11.628;2023-04-16T05:51:45;5.80;99.90
1015;DHT22;8170;48.118;11.628;2023-04-16T05:52:48;5.80;99.90
1015;DHT22;8170;48.118;11.628;2023-04-16T05:53:51;5.80;99.90
1015;DHT22;8170;48.118;11.628;2023-04-16T05:54:53;5.80;99.90
1015;DHT22;8170;48.118;11.628;2023-04-16T05:55:56;5.80;99.90
1015;DHT22;8170;48.118;11.628;2023-04-16T05:56:58;5.80;99.90
1015;DHT22;8170;48.118;11.628;2023-04-16T05:58:01;5.80;99.90
1015;DHT22;8170;48.118;11.628;2023-04-16T05:59:05;5.80;99.90
1015;DHT22;8170;48.118;11.628;2023-04-16T06:00:09;5.90;99.90
1015;DHT22;8170;48.118;11.628;2023-04-16T06:01:14;5.90;99.90
1015;DHT22;8170;48.118;11.628;2023-04-16T06:02:18;5.80;99.90
1015;DHT22;8170;48.118;11.628;2023-04-16T06:03:22;5.80;99.90
1015;DHT22;8170;48.118;11.628;2023-04-16T06:04:26;5.80;99.90
1015;DHT22;8170;48.118;11.628;2023-04-16T06:05:28;5.80;99.90
1015;DHT22;8170;48.118;11.628;2023-04-16T06:06:31;5.80;99.90
1015;DHT22;8170;48.118;11.628;2023-04-16T06:07:33;5.80;99.90
1015;DHT22;8170;48.118;11.628;2023-04-16T06:08:36;5.90;99.90
1015;DHT22;8170;48.118;11.628;2023-04-16T06:09:38;5.90;99.90
1015;DHT22;8170;48.118;11.628;2023-04-16T06:10:42;5.90;99.90
1015;DHT22;8170;48.118;11.628;2023-04-16T06:11:47;5.90;99.90
1015;DHT22;8170;48.118;11.628;2023-04-16T06:12:50;6.00;99.90
1015;DHT22;8170;48.118;11.628;2023-04-16T06:13:52;6.00;99.90
1015;DHT22;8170;48.118;11.628;2023-04-16T06:14:55;6.00;99.90
1015;DHT22;8170;48.118;11.628;2023-04-16T06:15:57;6.00;99.90
1015;DHT22;8170;48.118;11.628;2023-04-16T06:17:01;6.00;99.90
1015;DHT22;8170;48.118;11.628;2023-04-16T06:18:03;6.10;99.90
1015;DHT22;8170;48.118;11.628;2023-04-16T06:19:08;6.10;99.90
1015;DHT22;8170;48.118;11.628;2023-04-16T06:20:11;6.10;99.90
1015;DHT22;8170;48.118;11.628;2023-04-16T06:21:15;6.00;99.90
1015;DHT22;8170;48.118;11.628;2023-04-16T06:22:17;6.10;99.90
1015;DHT22;8170;48.118;11.628;2023-04-16T06:23:20;6.10;99.90
1015;DHT22;8170;48.118;11.628;2023-04-16T06:24:22;6.20;99.90
1015;DHT22;8170;48.118;11.628;2023-04-16T06:25:25;6.20;99.90
1015;DHT22;8170;48.118;11.628;2023-04-16T06:26:27;6.30;99.90
1015;DHT22;8170;48.118;11.628;2023-04-16T06:27:30;6.70;99.90
1015;DHT22;8170;48.118;11.628;2023-04-16T06:28:33;7.10;99.90
1015;DHT22;8170;48.118;11.628;2023-04-16T06:29:36;7.30;99.90
1015;DHT22;8170;48.118;11.628;2023-04-16T06:30:43;7.30;99.90
1015;DHT22;8170;48.118;11.628;2023-04-16T06:31:47;7.30;99.90
1015;DHT22;8170;48.118;11.628;2023-04-16T06:32:50;7.20;99.90
1015;DHT22;8170;48.118;11.628;2023-04-16T06:33:53;7.30;99.90
1015;DHT22;8170;48.118;11.628;2023-04-16T06:34:58;7.30;99.90
1015;DHT22;8170;48.118;11.628;2023-04-16T06:36:00;7.30;99.90
1015;DHT22;8170;48.118;11.628;2023-04-16T06:37:03;7.20;99.90
1015;DHT22;8170;48.118;11.628;2023-04-16T06:38:05;7.10;99.90
1015;DHT22;8170;48.118;11.628;2023-04-16T06:39:08;7.00;99.90
1015;DHT22;8170;48.118;11.628;2023-04-16T06:40:12;6.90;99.90
1015;DHT22;8170;48.118;11.628;2023-04-16T06:41:14;6.80;99.90
1015;DHT22;8170;48.118;11.628;2023-04-16T06:42:19;6.80;99.90
1015;DHT22;8170;48.118;11.628;2023-04-16T06:43:22;6.80;99.90
1015;DHT22;8170;48.118;11.628;2023-04-16T06:44:24;6.80;99.90
1015;DHT22;8170;48.118;11.628;2023-04-16T06:45:27;6.80;99.90
1015;DHT22;8170;48.118;11.628;2023-04-16T06:46:30;6.80;99.90
1015;DHT22;8170;48.118;11.628;2023-04-16T06:47:33;6.80;99.90
1015;DHT22;8170;48.118;11.628;2023-04-16T06:48:35;6.90;99.90
1015;DHT22;8170;48.118;11.628;2023-04-16T06:49:39;6.80;99.90
1015;DHT22;8170;48.118;11.628;2023-04-16T06:50:42;6.90;99.90
1015;DHT22;8170;48.118;11.628;2023-04-16T06:51:48;6.80;99.90
1015;DHT22;8170;48.118;11.628;2023-04-16T06:52:51;6.90;99.90
1015;DHT22;8170;48.118;11.628;2023-04-16T06:53:54;6.90;99.90